Time;durP1;ratioP1;P1;durP2;ratioP2;P2;SDS_P1;SDS_P2;PMS_P1;PMS_P2;Temp;Humidity;BMP_temperature;BMP_pressure;BME280_temperature;BME280_humidity;BME280_pressure;Samples;Min_cycle;Max_cycle;Signal;HPM_P1;HPM_P2
2023/12/15 00:01:38;;;;;;;38.75;20.70;;;8.40;99.90;;;;;;4998852;28;20304;-70
2023/12/15 00:04:03;;;;;;;42.05;22.48;;;8.40;99.90;;;;;;4987749;28;20026;-70
2023/12/15 00:06:29;;;;;;;45.40;22.85;;;8.50;99.90;;;;;;4999738;28;20018;-70
2023/12/15 00:08:55;;;;;;;43.17;25.02;;;8.50;99.90;;;;;;4996588;28;20022;-70
2023/12/15 00:11:21;;;;;;;49.90;24.50;;;8.50;99.90;;;;;;4995072;28;20034;-70
2023/12/15 00:13:46;;;;;;;48.10;25.65;;;8.60;99.90;;;;;;4997021;28;20028;-70
2023/12/15 00:16:12;;;;;;;53.63;26.23;;;8.60;99.90;;;;;;4998642;28;20041;-70
2023/12/15 00:18:38;;;;;;;49.47;26.08;;;8.60;99.90;;;;;;4996396;28;20604;-70
2023/12/15 00:21:04;;;;;;;56.58;25.23;;;8.50;99.90;;;;;;4995110;28;20380;-70
2023/12/15 00:23:29;;;;;;;52.13;26.70;;;8.50;99.90;;;;;;4985430;28;20394;-70
2023/12/15 00:25:55;;;;;;;50.08;25.85;;;8.40;99.90;;;;;;4998111;28;20026;-70
2023/12/15 00:28:20;;;;;;;44.45;25.15;;;8.40;99.90;;;;;;4996951;28;20441;-70
2023/12/15 00:30:46;;;;;;;49.80;25.63;;;8.40;99.90;;;;;;4998121;28;20479;-71
2023/12/15 00:33:12;;;;;;;47.58;23.02;;;8.40;99.90;;;;;;4995877;28;20395;-70
2023/12/15 00:35:37;;;;;;;49.33;23.38;;;8.40;99.90;;;;;;4995728;28;20384;-70
2023/12/15 00:38:03;;;;;;;43.88;20.92;;;8.40;99.90;;;;;;4996379;28;20120;-70
2023/12/15 00:40:29;;;;;;;42.58;22.20;;;8.40;99.90;;;;;;4996757;28;20022;-70
2023/12/15 00:42:55;;;;;;;45.22;23.20;;;8.40;99.90;;;;;;4995266;28;20039;-71
2023/12/15 00:45:20;;;;;;;40.85;21.00;;;8.40;99.90;;;;;;4996611;28;20022;-71
2023/12/15 00:47:46;;;;;;;40.20;22.10;;;8.40;99.90;;;;;;4996915;28;20462;-70
2023/12/15 00:50:12;;;;;;;47.90;24.23;;;8.40;99.90;;;;;;4995977;28;20025;-71
2023/12/15 00:52:37;;;;;;;52.97;24.60;;;8.30;99.90;;;;;;4993568;28;20627;-70
2023/12/15 00:55:04;;;;;;;51.03;25.38;;;8.40;99.90;;;;;;4997095;28;20471;-70
2023/12/15 00:57:29;;;;;;;47.42;24.40;;;8.40;99.90;;;;;;4993408;28;20038;-70
2023/12/15 00:59:56;;;;;;;44.28;24.40;;;8.40;99.90;;;;;;4998300;28;20018;-71
2023/12/15 01:02:21;;;;;;;44.20;23.10;;;8.40;99.90;;;;;;4992806;28;20478;-70
2023/12/15 01:04:47;;;;;;;48.72;25.27;;;8.50;99.90;;;;;;4991937;28;20097;-70
2023/12/15 01:07:13;;;;;;;45.58;23.33;;;8.50;99.90;;;;;;4997137;28;21260;-70
2023/12/15 01:09:38;;;;;;;43.08;23.33;;;8.50;99.90;;;;;;4997868;28;20625;-70
2023/12/15 01:12:04;;;;;;;45.97;24.15;;;8.50;99.90;;;;;;4995061;28;20119;-70
2023/12/15 01:14:30;;;;;;;47.90;24.88;;;8.50;99.90;;;;;;4995231;28;20105;-70
2023/12/15 01:16:55;;;;;;;41.40;23.17;;;8.50;99.90;;;;;;4995168;28;20519;-70
2023/12/15 01:19:21;;;;;;;43.53;23.83;;;8.50;99.90;;;;;;4984115;28;20482;-70
2023/12/15 01:21:47;;;;;;;50.30;24.35;;;8.50;99.90;;;;;;4995571;28;21436;-70
2023/12/15 01:24:13;;;;;;;51.33;25.80;;;8.50;99.90;;;;;;4994349;28;20045;-70
2023/12/15 01:26:39;;;;;;;53.00;25.35;;;8.50;99.90;;;;;;4995125;28;20030;-71
2023/12/15 01:29:04;;;;;;;48.83;25.13;;;8.60;99.90;;;;;;4984767;28;20099;-73
2023/12/15 01:31:31;;;;;;;55.63;26.08;;;8.60;99.90;;;;;;4993619;28;20437;-72
2023/12/15 01:33:57;;;;;;;50.47;23.90;;;8.60;99.90;;;;;;4998549;28;20072;-71
2023/12/15 01:36:22;;;;;;;48.00;24.20;;;8.60;99.90;;;;;;4994392;28;20609;-71
2023/12/15 01:38:48;;;;;;;51.58;24.70;;;8.70;99.90;;;;;;4994947;28;20073;-71
2023/12/15 01:41:14;;;;;;;58.78;29.13;;;8.70;99.90;;;;;;4996124;28;20022;-71
2023/12/15 01:43:40;;;;;;;45.35;24.42;;;8.70;99.90;;;;;;4995680;28;20097;-70
2023/12/15 01:46:06;;;;;;;44.00;23.38;;;8.70;99.90;;;;;;4991223;28;20026;-70
2023/12/15 01:48:31;;;;;;;47.90;22.45;;;8.70;99.90;;;;;;4993542;28;20038;-71
2023/12/15 01:50:57;;;;;;;50.15;23.05;;;8.70;99.90;;;;;;4994828;28;20026;-71
2023/12/15 01:53:23;;;;;;;45.08;22.40;;;8.80;99.90;;;;;;4995351;28;20026;-70
2023/12/15 01:55:49;;;;;;;47.33;22.98;;;8.70;99.90;;;;;;4997062;28;20034;-71
2023/12/15 01:58:15;;;;;;;58.90;26.20;;;8.80;99.90;;;;;;4997510;28;20045;-71
2023/12/15 02:00:41;;;;;;;47.10;24.05;;;8.80;99.90;;;;;;4997025;28;20029;-70
2023/12/15 02:03:07;;;;;;;46.05;22.88;;;8.80;99.90;;;;;;4992970;28;20034;-71
2023/12/15 02:05:32;;;;;;;53.60;25.15;;;8.80;99.90;;;;;;4995194;28;20479;-70
2023/12/15 02:07:59;;;;;;;55.72;24.65;;;8.80;99.90;;;;;;4994394;28;20030;-71
2023/12/15 02:10:25;;;;;;;43.35;23.90;;;8.70;99.90;;;;;;4996470;28;21058;-71
2023/12/15 02:12:51;;;;;;;48.42;23.33;;;8.80;99.90;;;;;;4998567;28;20088;-72
2023/12/15 02:15:17;;;;;;;51.75;23.27;;;8.80;99.90;;;;;;5000023;28;20029;-71
2023/12/15 02:17:42;;;;;;;47.25;24.38;;;8.80;99.90;;;;;;5001391;28;20371;-71
2023/12/15 02:20:09;;;;;;;55.58;24.70;;;8.80;99.90;;;;;;5001031;28;20032;-71
2023/12/15 02:22:34;;;;;;;58.85;23.88;;;8.80;99.90;;;;;;4996154;28;20102;-71
2023/12/15 02:25:00;;;;;;;57.78;24.42;;;8.80;99.90;;;;;;5002844;28;20173;-71
2023/12/15 02:27:26;;;;;;;49.53;24.95;;;8.70;99.90;;;;;;4997863;28;20037;-71
2023/12/15 02:29:51;;;;;;;51.85;24.85;;;8.80;99.90;;;;;;5001646;28;20434;-70
2023/12/15 02:32:17;;;;;;;65.72;28.77;;;8.70;99.90;;;;;;4998510;28;20391;-70
2023/12/15 02:34:43;;;;;;;54.15;26.63;;;8.80;99.90;;;;;;4995210;28;20026;-71
2023/12/15 02:37:08;;;;;;;57.20;26.60;;;8.80;99.90;;;;;;4999572;28;20450;-70
2023/12/15 02:39:37;;;;;;;68.57;27.63;;;8.80;99.90;;;;;;4999737;28;20022;-71
2023/12/15 02:42:03;;;;;;;66.97;27.55;;;8.80;99.90;;;;;;4997896;28;20113;-71
2023/12/15 02:44:28;;;;;;;56.85;26.83;;;8.80;99.90;;;;;;4999359;28;20105;-71
2023/12/15 02:46:54;;;;;;;62.92;28.60;;;8.80;99.90;;;;;;4999833;28;20058;-71
2023/12/15 02:49:20;;;;;;;61.67;26.92;;;8.80;99.90;;;;;;4998051;28;20073;-71
2023/12/15 02:51:45;;;;;;;78.15;30.00;;;8.80;99.90;;;;;;4997424;28;20395;-71
2023/12/15 02:54:11;;;;;;;71.85;28.60;;;8.80;99.90;;;;;;4997228;28;20385;-71
2023/12/15 02:56:37;;;;;;;89.18;31.20;;;8.80;99.90;;;;;;4997648;28;20126;-71
2023/12/15 02:59:03;;;;;;;72.70;30.60;;;8.80;99.90;;;;;;4998314;28;20089;-71
2023/12/15 03:01:29;;;;;;;87.47;31.45;;;8.80;99.90;;;;;;4996505;28;20430;-70
2023/12/15 03:03:54;;;;;;;103.28;32.92;;;8.80;99.90;;;;;;4985114;28;20108;-70
2023/12/15 03:06:20;;;;;;;79.90;30.90;;;8.80;99.90;;;;;;4998287;28;20060;-71
2023/12/15 03:08:46;;;;;;;85.68;30.17;;;8.90;99.90;;;;;;4996338;28;20422;-70
2023/12/15 03:11:12;;;;;;;74.93;30.10;;;8.90;99.90;;;;;;4995603;28;20026;-70
2023/12/15 03:13:38;;;;;;;73.03;27.48;;;8.90;99.90;;;;;;4998307;28;20038;-71
2023/12/15 03:16:11;;;;;;;79.85;30.80;;;8.90;99.90;;;;;;4999520;28;20030;-71
2023/12/15 03:18:40;;;;;;;81.68;33.08;;;8.90;99.90;;;;;;4997715;28;20117;-71
2023/12/15 03:21:06;;;;;;;83.78;31.77;;;8.90;99.90;;;;;;4994794;28;20507;-71
2023/12/15 03:23:32;;;;;;;79.95;29.05;;;8.90;99.90;;;;;;4996970;28;20109;-71
2023/12/15 03:25:58;;;;;;;59.72;25.67;;;8.90;99.90;;;;;;4995734;28;20022;-71
2023/12/15 03:28:23;;;;;;;82.78;31.05;;;8.90;99.90;;;;;;4996528;28;20084;-71
2023/12/15 03:30:49;;;;;;;71.88;28.75;;;8.80;99.90;;;;;;4998083;28;20153;-71
2023/12/15 03:33:15;;;;;;;99.28;43.45;;;8.90;99.90;;;;;;4995267;28;20037;-71
2023/12/15 03:35:41;;;;;;;84.47;30.70;;;8.90;99.90;;;;;;4999512;28;20022;-71
2023/12/15 03:38:06;;;;;;;64.50;28.60;;;8.90;99.90;;;;;;4994935;28;20502;-72
2023/12/15 03:40:33;;;;;;;80.10;31.15;;;8.90;99.90;;;;;;4996409;28;20384;-71
2023/12/15 03:42:58;;;;;;;86.93;36.83;;;8.90;99.90;;;;;;4995452;28;20056;-72
2023/12/15 03:45:25;;;;;;;70.63;28.23;;;8.90;99.90;;;;;;4995798;28;20601;-71
2023/12/15 03:47:51;;;;;;;80.78;31.05;;;8.90;99.90;;;;;;4999880;28;20022;-71
2023/12/15 03:50:17;;;;;;;80.90;34.85;;;8.90;99.90;;;;;;4995889;28;20025;-71
2023/12/15 03:52:42;;;;;;;83.28;32.40;;;8.90;99.90;;;;;;4994133;28;20105;-71
2023/12/15 03:55:08;;;;;;;91.85;32.20;;;8.90;99.90;;;;;;4997009;28;20494;-70
2023/12/15 03:57:34;;;;;;;92.47;32.03;;;8.90;99.90;;;;;;4997452;28;20072;-70
2023/12/15 04:00:00;;;;;;;81.95;30.27;;;8.90;99.90;;;;;;4993285;28;20053;-71
2023/12/15 04:02:25;;;;;;;107.07;34.80;;;9.00;99.90;;;;;;4996556;28;20482;-71
2023/12/15 04:04:51;;;;;;;98.45;31.92;;;9.00;99.90;;;;;;4996967;28;20503;-71
2023/12/15 04:07:17;;;;;;;109.15;35.47;;;9.00;99.90;;;;;;4997213;28;20112;-71
2023/12/15 04:09:43;;;;;;;107.43;35.40;;;9.10;99.90;;;;;;4998021;28;20022;-71
2023/12/15 04:12:08;;;;;;;139.48;37.90;;;9.10;99.90;;;;;;4997691;28;20057;-71
2023/12/15 04:14:34;;;;;;;152.05;40.83;;;9.10;99.90;;;;;;4997875;28;20018;-70
2023/12/15 04:17:00;;;;;;;120.55;39.17;;;9.10;99.90;;;;;;4995911;28;20049;-71
2023/12/15 04:19:26;;;;;;;108.50;36.35;;;9.10;99.90;;;;;;4995643;28;20030;-71
2023/12/15 04:21:52;;;;;;;119.50;34.97;;;9.10;99.90;;;;;;4996171;28;20030;-71
2023/12/15 04:24:18;;;;;;;133.90;40.10;;;9.10;99.90;;;;;;4994939;28;20040;-70
2023/12/15 04:26:44;;;;;;;139.98;40.13;;;9.10;99.90;;;;;;4996733;28;20038;-71
2023/12/15 04:29:10;;;;;;;108.85;37.13;;;9.10;99.90;;;;;;4996362;28;20039;-71
2023/12/15 04:31:36;;;;;;;113.13;36.10;;;9.10;99.90;;;;;;4979023;28;20031;-71
2023/12/15 04:34:02;;;;;;;184.32;44.47;;;9.10;99.90;;;;;;4995738;28;20057;-71
2023/12/15 04:36:27;;;;;;;131.52;42.78;;;9.10;99.90;;;;;;4997313;28;20038;-71
2023/12/15 04:38:53;;;;;;;136.50;41.05;;;9.10;99.90;;;;;;4997200;28;20026;-71
2023/12/15 04:41:20;;;;;;;150.07;43.60;;;9.10;99.90;;;;;;4995571;28;20022;-71
2023/12/15 04:43:46;;;;;;;134.02;40.67;;;9.00;99.90;;;;;;4994380;28;20034;-71
2023/12/15 04:46:11;;;;;;;140.50;41.28;;;9.10;99.90;;;;;;4995780;28;20348;-71
2023/12/15 04:48:38;;;;;;;172.27;44.33;;;9.10;99.90;;;;;;4997400;28;20394;-71
2023/12/15 04:51:04;;;;;;;134.07;43.28;;;9.10;99.90;;;;;;4993493;28;20054;-71
2023/12/15 04:53:30;;;;;;;152.00;42.40;;;9.10;99.90;;;;;;4993624;28;20026;-70
2023/12/15 04:55:55;;;;;;;136.70;41.65;;;9.10;99.90;;;;;;4993333;28;20038;-71
2023/12/15 04:58:21;;;;;;;159.30;43.45;;;9.10;99.90;;;;;;4995224;28;20030;-71
2023/12/15 05:00:47;;;;;;;169.73;46.60;;;9.10;99.90;;;;;;4996277;28;20057;-71
2023/12/15 05:03:12;;;;;;;144.75;45.33;;;9.10;99.90;;;;;;4992682;28;20026;-72
2023/12/15 05:05:38;;;;;;;153.23;44.97;;;9.20;99.90;;;;;;4995016;28;20474;-71
2023/12/15 05:08:04;;;;;;;158.82;44.67;;;9.20;99.90;;;;;;4995125;28;20477;-70
2023/12/15 05:10:29;;;;;;;135.88;42.70;;;9.20;99.90;;;;;;4994452;28;20030;-70
2023/12/15 05:12:55;;;;;;;138.93;43.75;;;9.20;99.90;;;;;;4994674;28;20454;-71
2023/12/15 05:15:21;;;;;;;136.05;43.13;;;9.20;99.90;;;;;;4995894;28;20030;-70
2023/12/15 05:17:46;;;;;;;144.93;45.38;;;9.20;99.90;;;;;;4996365;28;20486;-71
2023/12/15 05:20:12;;;;;;;163.80;48.05;;;9.20;99.90;;;;;;4981090;28;20382;-71
2023/12/15 05:22:38;;;;;;;152.25;46.20;;;9.30;99.90;;;;;;4985425;28;20386;-70
2023/12/15 05:25:04;;;;;;;142.75;44.05;;;9.20;99.90;;;;;;4995117;28;20054;-71
2023/12/15 05:27:30;;;;;;;125.55;41.85;;;9.20;99.90;;;;;;4995174;28;20084;-71
2023/12/15 05:29:56;;;;;;;134.45;44.95;;;9.20;99.90;;;;;;4995705;28;20031;-71
2023/12/15 05:32:21;;;;;;;136.65;43.50;;;9.20;99.90;;;;;;4994987;28;20038;-71
2023/12/15 05:34:47;;;;;;;137.27;42.40;;;9.20;99.90;;;;;;4994168;28;20565;-71
2023/12/15 05:37:13;;;;;;;119.50;41.55;;;9.40;99.90;;;;;;4996675;28;20033;-71
2023/12/15 05:39:42;;;;;;;131.05;41.95;;;9.40;99.90;;;;;;4996032;28;20043;-70
2023/12/15 05:42:08;;;;;;;134.82;43.15;;;9.40;99.90;;;;;;4993979;28;20041;-76
2023/12/15 05:44:33;;;;;;;96.47;37.08;;;9.40;99.90;;;;;;4992190;28;20026;-72
2023/12/15 05:46:59;;;;;;;126.95;41.58;;;9.40;99.90;;;;;;4996188;28;20674;-71
2023/12/15 05:49:25;;;;;;;125.05;42.83;;;9.40;99.90;;;;;;4999385;28;20538;-71
2023/12/15 05:51:50;;;;;;;121.63;43.80;;;9.40;99.90;;;;;;5000456;28;20022;-71
2023/12/15 05:54:16;;;;;;;138.10;44.85;;;9.40;99.90;;;;;;5000277;28;20109;-71
2023/12/15 05:56:42;;;;;;;144.23;47.60;;;9.50;99.90;;;;;;5002655;28;20467;-71
2023/12/15 05:59:08;;;;;;;119.95;43.40;;;9.40;99.90;;;;;;4999078;28;20030;-72
2023/12/15 06:01:34;;;;;;;118.68;42.65;;;9.30;99.90;;;;;;4995055;28;20395;-71
2023/12/15 06:03:59;;;;;;;131.90;45.38;;;9.40;99.90;;;;;;4996719;28;20451;-71
2023/12/15 06:06:25;;;;;;;130.38;46.20;;;9.40;99.90;;;;;;4993802;28;20023;-72
2023/12/15 06:08:51;;;;;;;130.10;43.00;;;9.40;99.90;;;;;;5000299;28;20026;-74
2023/12/15 06:11:17;;;;;;;130.65;45.70;;;9.30;99.90;;;;;;4996090;28;20025;-71
2023/12/15 06:13:43;;;;;;;129.35;45.25;;;9.30;99.90;;;;;;4988298;28;20038;-71
2023/12/15 06:16:17;;;;;;;154.45;48.60;;;9.20;99.90;;;;;;4997371;28;20172;-71
2023/12/15 06:18:43;;;;;;;133.63;42.28;;;9.20;99.90;;;;;;4984783;28;20054;-71
2023/12/15 06:21:08;;;;;;;137.20;43.75;;;9.30;99.90;;;;;;4985576;28;20479;-71
2023/12/15 06:23:34;;;;;;;159.63;46.92;;;9.30;99.90;;;;;;4997900;28;20137;-70
2023/12/15 06:26:00;;;;;;;149.93;47.67;;;9.30;99.90;;;;;;4998714;28;20391;-71
2023/12/15 06:28:25;;;;;;;146.32;47.13;;;9.20;99.90;;;;;;4995276;28;20383;-70
2023/12/15 06:30:51;;;;;;;158.25;46.90;;;9.40;99.90;;;;;;4997429;28;20117;-70
2023/12/15 06:33:17;;;;;;;141.60;43.65;;;9.30;99.90;;;;;;4998260;28;20466;-71
2023/12/15 06:35:42;;;;;;;141.00;46.63;;;9.40;99.90;;;;;;4999261;28;20475;-71
2023/12/15 06:38:08;;;;;;;142.68;44.75;;;9.50;99.90;;;;;;5001425;28;20182;-72
2023/12/15 06:40:34;;;;;;;142.82;44.88;;;9.40;99.90;;;;;;4995016;28;20045;-73
2023/12/15 06:43:00;;;;;;;159.63;47.30;;;9.40;99.90;;;;;;4997479;28;20026;-72
2023/12/15 06:45:26;;;;;;;163.10;46.47;;;9.40;99.90;;;;;;4997659;28;20505;-73
2023/12/15 06:47:51;;;;;;;114.60;40.20;;;9.40;99.90;;;;;;4996606;28;20022;-70
2023/12/15 06:50:17;;;;;;;169.07;50.00;;;9.40;99.90;;;;;;4997993;28;20096;-70
2023/12/15 06:52:44;;;;;;;176.15;51.83;;;9.30;99.90;;;;;;4995289;28;20073;-76
2023/12/15 06:55:10;;;;;;;187.60;53.10;;;9.40;99.90;;;;;;4998444;28;20482;-72
2023/12/15 06:57:36;;;;;;;179.88;52.95;;;9.30;99.90;;;;;;4995812;28;20054;-72
2023/12/15 07:00:02;;;;;;;172.45;52.65;;;9.30;99.90;;;;;;4998146;28;20053;-72
2023/12/15 07:02:28;;;;;;;158.95;46.50;;;9.40;99.90;;;;;;4996962;28;20022;-76
2023/12/15 07:04:54;;;;;;;153.07;49.58;;;9.40;99.90;;;;;;4999830;28;20387;-71
2023/12/15 07:07:21;;;;;;;158.55;49.17;;;9.50;99.90;;;;;;5000942;28;20032;-74
2023/12/15 07:09:46;;;;;;;162.38;50.08;;;9.50;99.90;;;;;;5001722;28;20036;-74
2023/12/15 07:12:12;;;;;;;203.20;54.08;;;9.50;99.90;;;;;;4986772;28;20048;-74
2023/12/15 07:14:38;;;;;;;188.52;51.13;;;9.60;99.90;;;;;;4999376;28;20034;-70
2023/12/15 07:17:03;;;;;;;172.35;50.47;;;9.60;99.90;;;;;;4999240;28;20120;-71
2023/12/15 07:19:30;;;;;;;136.32;50.05;;;9.60;99.90;;;;;;4997566;28;20029;-73
2023/12/15 07:21:56;;;;;;;156.05;50.33;;;9.60;99.90;;;;;;4999252;28;20052;-70
2023/12/15 07:24:22;;;;;;;172.07;51.63;;;9.60;99.90;;;;;;4998273;28;20050;-71
2023/12/15 07:26:47;;;;;;;167.05;49.63;;;9.60;99.90;;;;;;4993568;28;20538;-71
2023/12/15 07:29:13;;;;;;;157.80;46.28;;;9.60;99.90;;;;;;4998028;28;20029;-72
2023/12/15 07:31:39;;;;;;;176.68;51.53;;;9.60;99.90;;;;;;4994233;28;20650;-73
2023/12/15 07:34:05;;;;;;;146.77;47.70;;;9.60;99.90;;;;;;4986044;28;20029;-73
2023/12/15 07:36:31;;;;;;;171.60;51.22;;;9.60;99.90;;;;;;4997000;28;20026;-70
2023/12/15 07:38:57;;;;;;;172.48;49.65;;;9.60;99.90;;;;;;4995009;28;20069;-72
2023/12/15 07:41:23;;;;;;;197.63;52.88;;;9.70;99.90;;;;;;4996493;28;20058;-71
2023/12/15 07:43:49;;;;;;;213.50;57.90;;;9.70;99.90;;;;;;4996759;28;20485;-72
2023/12/15 07:46:16;;;;;;;202.70;54.30;;;9.60;99.90;;;;;;4997899;28;20024;-72
2023/12/15 07:48:42;;;;;;;168.95;50.63;;;9.60;99.90;;;;;;4997357;28;20038;-72
2023/12/15 07:51:16;;;;;;;168.05;51.17;;;9.60;99.90;;;;;;4987074;28;20356;-71
2023/12/15 07:53:42;;;;;;;183.25;52.80;;;9.60;99.90;;;;;;4998412;28;20470;-71
2023/12/15 07:56:08;;;;;;;182.35;51.75;;;9.60;99.90;;;;;;4998472;28;20050;-71
2023/12/15 07:58:34;;;;;;;201.52;57.88;;;9.60;99.90;;;;;;4998218;28;20384;-74
2023/12/15 08:00:59;;;;;;;186.02;55.08;;;9.60;99.90;;;;;;4995718;28;20476;-71
2023/12/15 08:03:25;;;;;;;196.00;57.55;;;9.60;99.90;;;;;;4994406;28;20303;-70
2023/12/15 08:05:51;;;;;;;204.23;56.75;;;9.60;99.90;;;;;;4995044;28;20427;-72
2023/12/15 08:08:17;;;;;;;186.02;53.03;;;9.60;99.90;;;;;;4993648;28;20026;-74
2023/12/15 08:10:42;;;;;;;193.40;55.33;;;9.60;99.90;;;;;;4998873;28;21453;-72
2023/12/15 08:13:12;;;;;;;167.85;51.40;;;9.60;99.90;;;;;;4997149;28;20034;-71
2023/12/15 08:15:38;;;;;;;179.77;52.42;;;9.50;99.90;;;;;;4997443;28;20030;-71
2023/12/15 08:18:04;;;;;;;183.30;53.53;;;9.60;99.90;;;;;;4994430;28;20120;-73
2023/12/15 08:20:30;;;;;;;202.13;55.85;;;9.60;99.90;;;;;;4997636;28;20025;-72
2023/12/15 08:22:55;;;;;;;186.85;54.30;;;9.60;99.90;;;;;;4994956;28;20105;-71
2023/12/15 08:25:21;;;;;;;178.95;52.55;;;9.70;99.90;;;;;;4996832;28;20025;-76
2023/12/15 08:27:47;;;;;;;170.82;53.92;;;9.80;99.90;;;;;;4994426;28;20033;-72
2023/12/15 08:30:13;;;;;;;176.45;53.88;;;9.80;99.90;;;;;;4996112;28;20034;-71
2023/12/15 08:32:38;;;;;;;179.68;51.70;;;9.70;99.90;;;;;;4984812;28;20036;-72
2023/12/15 08:35:04;;;;;;;169.65;53.90;;;9.80;99.90;;;;;;4995241;28;20018;-71
2023/12/15 08:37:30;;;;;;;167.65;53.13;;;9.80;99.90;;;;;;4981657;28;20040;-70
2023/12/15 08:39:56;;;;;;;182.23;55.30;;;9.80;99.90;;;;;;5001272;28;20121;-71
2023/12/15 08:42:21;;;;;;;162.75;52.10;;;9.80;99.90;;;;;;4995382;28;20035;-71
2023/12/15 08:44:47;;;;;;;179.57;54.72;;;9.80;99.90;;;;;;4996935;28;20482;-70
2023/12/15 08:47:13;;;;;;;174.73;53.72;;;9.80;99.90;;;;;;4994550;28;20380;-72
2023/12/15 08:49:39;;;;;;;175.77;53.60;;;9.90;99.90;;;;;;4996172;28;20494;-74
2023/12/15 08:52:05;;;;;;;181.07;55.28;;;10.00;99.90;;;;;;4995856;28;20106;-72
2023/12/15 08:54:31;;;;;;;153.82;50.20;;;10.00;99.90;;;;;;4990889;28;20029;-72
2023/12/15 08:56:56;;;;;;;161.20;51.42;;;10.10;99.90;;;;;;4985865;28;20060;-71
2023/12/15 08:59:22;;;;;;;188.02;52.85;;;10.10;99.90;;;;;;4994355;28;20601;-71
2023/12/15 09:01:48;;;;;;;175.57;54.17;;;10.10;99.90;;;;;;4995476;28;20179;-71
2023/12/15 09:04:14;;;;;;;155.27;50.60;;;10.10;99.90;;;;;;4993047;28;20018;-71
2023/12/15 09:06:41;;;;;;;177.65;52.35;;;10.10;99.90;;;;;;4996382;28;20020;-72
2023/12/15 09:09:07;;;;;;;175.80;52.85;;;10.00;99.90;;;;;;4994927;28;20029;-73
2023/12/15 09:11:34;;;;;;;148.45;48.67;;;10.10;99.90;;;;;;4992501;28;20530;-71
2023/12/15 09:14:01;;;;;;;170.32;51.40;;;10.20;99.90;;;;;;4992212;28;20037;-70
2023/12/15 09:16:27;;;;;;;173.77;52.97;;;10.20;99.90;;;;;;4992730;28;20030;-75
2023/12/15 09:18:52;;;;;;;160.23;52.72;;;10.20;99.90;;;;;;4991928;28;20047;-70
2023/12/15 09:21:18;;;;;;;158.88;51.85;;;10.10;99.90;;;;;;4992839;28;20461;-70
2023/12/15 09:23:44;;;;;;;140.50;49.53;;;10.10;99.90;;;;;;4992816;28;20101;-70
2023/12/15 09:26:10;;;;;;;171.27;53.60;;;10.10;99.90;;;;;;4995095;28;20125;-73
2023/12/15 09:28:35;;;;;;;140.77;47.90;;;10.30;99.90;;;;;;4994930;28;20112;-70
2023/12/15 09:31:01;;;;;;;145.77;49.88;;;10.20;99.90;;;;;;4993562;28;20138;-70
2023/12/15 09:33:27;;;;;;;143.88;48.28;;;10.20;99.90;;;;;;4997567;28;20108;-71
2023/12/15 09:35:54;;;;;;;131.95;47.15;;;10.30;99.90;;;;;;4991842;28;20724;-70
2023/12/15 09:38:20;;;;;;;135.63;49.42;;;10.10;99.90;;;;;;4994570;28;20037;-72
2023/12/15 09:40:46;;;;;;;140.00;47.35;;;10.20;99.90;;;;;;4994725;28;20053;-71
2023/12/15 09:43:12;;;;;;;120.20;46.75;;;10.20;99.90;;;;;;4994347;28;20467;-71
2023/12/15 09:45:38;;;;;;;128.20;47.05;;;10.20;99.90;;;;;;4994690;28;20022;-70
2023/12/15 09:48:06;;;;;;;136.48;46.20;;;10.20;99.90;;;;;;4994950;28;20049;-71
2023/12/15 09:50:34;;;;;;;129.65;47.03;;;10.20;99.90;;;;;;4992726;28;20022;-70
2023/12/15 09:53:02;;;;;;;129.63;45.42;;;10.20;99.90;;;;;;4993633;28;20092;-71
2023/12/15 09:55:30;;;;;;;117.38;44.58;;;10.30;99.90;;;;;;4994791;28;20029;-70
2023/12/15 09:57:57;;;;;;;117.97;46.03;;;10.30;99.90;;;;;;4996076;28;20187;-71
2023/12/15 10:00:23;;;;;;;122.60;44.58;;;10.30;99.90;;;;;;4994402;28;20471;-71
2023/12/15 10:02:49;;;;;;;105.70;44.72;;;10.30;99.90;;;;;;4995588;28;20030;-70
2023/12/15 10:05:15;;;;;;;117.15;44.53;;;10.30;99.90;;;;;;4995243;28;20565;-70
2023/12/15 10:07:41;;;;;;;108.68;41.63;;;10.30;99.90;;;;;;4993256;28;20025;-72
2023/12/15 10:10:07;;;;;;;109.97;43.97;;;10.30;99.90;;;;;;4993089;28;20026;-71
2023/12/15 10:12:33;;;;;;;105.68;43.72;;;10.40;99.90;;;;;;4991293;28;20061;-70
2023/12/15 10:14:59;;;;;;;112.03;44.08;;;10.40;99.90;;;;;;4993563;28;20096;-71
2023/12/15 10:17:25;;;;;;;109.20;42.90;;;10.50;99.90;;;;;;4995413;28;20191;-71
2023/12/15 10:20:03;;;;;;;108.75;44.17;;;10.40;99.90;;;;;;4994330;28;20030;-71
2023/12/15 10:22:29;;;;;;;106.63;43.38;;;10.40;99.90;;;;;;4993939;28;20037;-71
2023/12/15 10:24:54;;;;;;;97.70;40.60;;;10.50;99.90;;;;;;4994290;28;20034;-70
2023/12/15 10:27:20;;;;;;;95.70;39.20;;;10.50;99.90;;;;;;4993523;28;20042;-71
2023/12/15 10:29:46;;;;;;;92.32;41.40;;;10.50;99.90;;;;;;4994926;28;20030;-69
2023/12/15 10:32:12;;;;;;;95.20;39.90;;;10.40;99.90;;;;;;4991475;28;20037;-71
2023/12/15 10:34:38;;;;;;;92.45;38.95;;;10.40;99.90;;;;;;4998112;28;20037;-74
2023/12/15 10:37:04;;;;;;;101.53;41.05;;;10.40;99.90;;;;;;4998946;28;20034;-69
2023/12/15 10:39:30;;;;;;;96.90;39.42;;;10.50;99.90;;;;;;4995203;28;20025;-70
2023/12/15 10:41:57;;;;;;;89.68;39.00;;;10.50;99.90;;;;;;4994862;28;20038;-72
2023/12/15 10:44:26;;;;;;;94.35;38.45;;;10.50;99.90;;;;;;4998451;28;20018;-73
2023/12/15 10:46:53;;;;;;;83.72;39.20;;;10.50;99.90;;;;;;4996782;28;20058;-70
2023/12/15 10:49:19;;;;;;;85.80;38.90;;;10.70;99.90;;;;;;4998235;28;20026;-73
2023/12/15 10:51:47;;;;;;;87.75;36.20;;;10.70;99.90;;;;;;4994678;28;20061;-69
2023/12/15 10:54:15;;;;;;;76.75;35.75;;;10.60;99.90;;;;;;4994764;28;20030;-70
2023/12/15 10:56:41;;;;;;;82.15;36.00;;;10.60;99.90;;;;;;4998237;28;20038;-69
2023/12/15 10:59:07;;;;;;;75.97;33.92;;;10.60;99.90;;;;;;4996321;28;20045;-70
2023/12/15 11:01:37;;;;;;;69.68;31.27;;;10.70;99.90;;;;;;4985165;28;20450;-70
2023/12/15 11:04:16;;;;;;;68.45;32.35;;;10.60;99.90;;;;;;4993256;28;20040;-69
2023/12/15 11:06:42;;;;;;;72.22;32.95;;;10.60;99.90;;;;;;4998019;28;20022;-70
2023/12/15 11:09:08;;;;;;;73.60;32.70;;;10.60;99.90;;;;;;4986998;28;20030;-69
2023/12/15 11:11:33;;;;;;;72.35;32.70;;;10.60;99.90;;;;;;4996802;28;20497;-71
2023/12/15 11:14:04;;;;;;;67.97;31.30;;;10.60;99.90;;;;;;4997681;28;20104;-69
2023/12/15 11:16:34;;;;;;;70.85;31.95;;;10.70;99.90;;;;;;4998381;28;20032;-69
2023/12/15 11:19:00;;;;;;;63.85;29.58;;;10.60;99.90;;;;;;4998415;28;20026;-69
2023/12/15 11:21:27;;;;;;;62.50;30.17;;;10.60;99.90;;;;;;4995114;28;20033;-70
2023/12/15 11:23:57;;;;;;;69.30;30.60;;;10.60;99.90;;;;;;4992252;28;20034;-70
2023/12/15 11:26:31;;;;;;;67.93;32.28;;;10.50;99.90;;;;;;4986501;28;20455;-69
2023/12/15 11:29:03;;;;;;;66.80;29.95;;;10.60;99.90;;;;;;4987945;28;20026;-70
2023/12/15 11:31:30;;;;;;;61.50;29.10;;;10.70;99.90;;;;;;4996558;28;20026;-71
2023/12/15 11:33:56;;;;;;;66.53;29.63;;;10.70;99.90;;;;;;4995942;28;20501;-72
2023/12/15 11:36:22;;;;;;;60.45;27.42;;;10.70;99.90;;;;;;4995629;28;20030;-70
2023/12/15 11:38:50;;;;;;;66.15;27.35;;;10.70;99.90;;;;;;4995216;28;20040;-69
2023/12/15 11:41:19;;;;;;;62.75;26.15;;;10.70;99.90;;;;;;4994954;28;20022;-69
2023/12/15 11:43:45;;;;;;;55.72;25.40;;;10.70;99.90;;;;;;4992505;28;20386;-70
2023/12/15 11:46:11;;;;;;;53.72;24.65;;;10.70;99.90;;;;;;4996958;28;20034;-70
2023/12/15 11:48:37;;;;;;;58.00;24.02;;;10.80;99.90;;;;;;4995179;28;20054;-70
2023/12/15 11:51:04;;;;;;;53.58;25.05;;;10.70;99.90;;;;;;4985131;28;20410;-69
2023/12/15 11:53:32;;;;;;;52.35;25.00;;;10.70;99.90;;;;;;4992639;28;20117;-70
2023/12/15 11:56:01;;;;;;;61.75;27.17;;;10.70;99.90;;;;;;4994339;28;20025;-70
2023/12/15 11:58:27;;;;;;;54.75;25.48;;;10.70;99.90;;;;;;4997570;28;20030;-69
2023/12/15 12:00:52;;;;;;;51.95;23.75;;;10.70;99.90;;;;;;4995251;28;20034;-73
2023/12/15 12:03:19;;;;;;;54.03;23.02;;;10.80;99.90;;;;;;4997061;28;20035;-70
2023/12/15 12:05:47;;;;;;;51.80;23.25;;;10.80;99.90;;;;;;4996259;28;20049;-71
2023/12/15 12:08:14;;;;;;;43.58;20.40;;;10.80;99.90;;;;;;4995420;28;20111;-74
2023/12/15 12:10:41;;;;;;;46.20;18.90;;;10.80;99.90;;;;;;4995672;28;20029;-70
2023/12/15 12:13:10;;;;;;;36.33;18.83;;;10.80;99.90;;;;;;4984374;28;20103;-72
2023/12/15 12:15:53;;;;;;;40.90;18.55;;;10.80;99.90;;;;;;4995411;28;20375;-70
2023/12/15 12:18:23;;;;;;;;;;;10.90;99.90;;;;;;4994574;28;20421;-70
2023/12/15 12:20:51;;;;;;;41.65;19.00;;;10.90;99.90;;;;;;4996510;28;20154;-72
2023/12/15 12:23:17;;;;;;;38.28;17.95;;;10.90;99.90;;;;;;4993584;28;20493;-70